sensor_id;sensor_type;location;lat;lon;timestamp;pressure;altitude;pressure_sealevel;temperature;humidity
8318;BME280;4196;48.926;8.964;2023-05-29T00:00:15;99019.13;;;10.07;100.00
8318;BME280;4196;48.926;8.964;2023-05-29T00:03:06;99065.69;;;10.37;100.00
8318;BME280;4196;48.926;8.964;2023-05-29T00:05:53;99033.78;;;10.11;100.00
8318;BME280;4196;48.926;8.964;2023-05-29T00:08:40;99054.44;;;10.23;100.00
8318;BME280;4196;48.926;8.964;2023-05-29T00:11:27;99080.38;;;10.35;100.00
8318;BME280;4196;48.926;8.964;2023-05-29T00:14:13;99075.16;;;10.23;100.00
8318;BME280;4196;48.926;8.964;2023-05-29T00:17:01;99051.91;;;10.03;100.00
8318;BME280;4196;48.926;8.964;2023-05-29T00:19:49;99081.22;;;10.14;100.00
8318;BME280;4196;48.926;8.964;2023-05-29T00:22:36;99080.34;;;10.11;100.00
8318;BME280;4196;48.926;8.964;2023-05-29T00:25:26;99088.97;;;10.10;100.00
8318;BME280;4196;48.926;8.964;2023-05-29T00:28:13;99066.56;;;9.92;100.00
8318;BME280;4196;48.926;8.964;2023-05-29T00:30:59;99045.00;;;9.82;100.00
8318;BME280;4196;48.926;8.964;2023-05-29T00:33:46;99075.19;;;9.92;100.00
8318;BME280;4196;48.926;8.964;2023-05-29T00:36:33;99073.44;;;9.85;100.00
8318;BME280;4196;48.926;8.964;2023-05-29T00:39:19;99075.19;;;9.80;100.00
8318;BME280;4196;48.926;8.964;2023-05-29T00:42:06;99065.69;;;9.76;100.00
8318;BME280;4196;48.926;8.964;2023-05-29T00:44:53;99076.03;;;9.76;100.00
8318;BME280;4196;48.926;8.964;2023-05-29T00:47:41;99073.47;;;9.81;100.00
8318;BME280;4196;48.926;8.964;2023-05-29T00:50:28;98997.59;;;9.40;100.00
8318;BME280;4196;48.926;8.964;2023-05-29T00:53:15;99056.22;;;9.72;100.00
8318;BME280;4196;48.926;8.964;2023-05-29T00:56:01;99063.13;;;9.84;100.00
8318;BME280;4196;48.926;8.964;2023-05-29T00:58:49;99069.13;;;9.86;100.00
8318;BME280;4196;48.926;8.964;2023-05-29T01:01:38;99043.25;;;9.64;100.00
8318;BME280;4196;48.926;8.964;2023-05-29T01:04:26;99071.69;;;9.60;100.00
8318;BME280;4196;48.926;8.964;2023-05-29T01:07:13;99054.47;;;9.43;100.00
8318;BME280;4196;48.926;8.964;2023-05-29T01:10:00;99051.00;;;9.43;100.00
8318;BME280;4196;48.926;8.964;2023-05-29T01:12:59;99069.13;;;9.51;100.00
8318;BME280;4196;48.926;8.964;2023-05-29T01:15:56;99050.97;;;9.38;100.00
8318;BME280;4196;48.926;8.964;2023-05-29T01:27:34;99043.19;;;9.18;100.00
8318;BME280;4196;48.926;8.964;2023-05-29T01:30:22;99034.59;;;9.18;100.00
8318;BME280;4196;48.926;8.964;2023-05-29T01:33:10;99050.97;;;9.25;100.00
8318;BME280;4196;48.926;8.964;2023-05-29T01:35:57;99052.69;;;9.27;100.00
8318;BME280;4196;48.926;8.964;2023-05-29T01:38:43;99038.03;;;9.23;100.00
8318;BME280;4196;48.926;8.964;2023-05-29T01:41:30;99045.78;;;9.14;100.00
8318;BME280;4196;48.926;8.964;2023-05-29T01:44:18;99063.88;;;9.23;100.00
8318;BME280;4196;48.926;8.964;2023-05-29T01:47:06;99028.53;;;9.10;100.00
8318;BME280;4196;48.926;8.964;2023-05-29T01:49:54;99052.63;;;9.07;100.00
8318;BME280;4196;48.926;8.964;2023-05-29T01:52:41;99050.03;;;9.00;100.00
8318;BME280;4196;48.926;8.964;2023-05-29T01:55:27;99055.19;;;8.97;100.00
8318;BME280;4196;48.926;8.964;2023-05-29T01:58:16;99067.31;;;9.22;100.00
8318;BME280;4196;48.926;8.964;2023-05-29T02:01:03;99050.94;;;9.15;100.00
8318;BME280;4196;48.926;8.964;2023-05-29T02:03:50;99070.69;;;9.04;100.00
8318;BME280;4196;48.926;8.964;2023-05-29T02:06:39;99050.00;;;8.89;100.00
8318;BME280;4196;48.926;8.964;2023-05-29T02:09:26;99063.78;;;8.95;100.00
8318;BME280;4196;48.926;8.964;2023-05-29T02:12:12;99056.84;;;8.82;100.00
8318;BME280;4196;48.926;8.964;2023-05-29T02:14:59;99033.53;;;8.67;100.00
8318;BME280;4196;48.926;8.964;2023-05-29T02:17:47;99054.22;;;8.71;100.00
8318;BME280;4196;48.926;8.964;2023-05-29T02:20:34;99045.56;;;8.65;100.00
8318;BME280;4196;48.926;8.964;2023-05-29T02:23:21;99048.97;;;8.58;100.00
8318;BME280;4196;48.926;8.964;2023-05-29T02:26:09;99061.91;;;8.61;100.00
8318;BME280;4196;48.926;8.964;2023-05-29T02:28:56;99043.78;;;8.52;100.00
8318;BME280;4196;48.926;8.964;2023-05-29T02:31:43;99031.72;;;8.44;100.00
8318;BME280;4196;48.926;8.964;2023-05-29T02:34:30;99047.22;;;8.52;100.00
8318;BME280;4196;48.926;8.964;2023-05-29T02:37:16;99033.44;;;8.45;100.00
8318;BME280;4196;48.926;8.964;2023-05-29T02:40:03;99031.69;;;8.41;100.00
8318;BME280;4196;48.926;8.964;2023-05-29T02:42:50;99048.03;;;8.42;100.00
8318;BME280;4196;48.926;8.964;2023-05-29T02:45:36;99039.44;;;8.43;100.00
8318;BME280;4196;48.926;8.964;2023-05-29T02:48:22;99028.25;;;8.42;100.00
8318;BME280;4196;48.926;8.964;2023-05-29T02:51:09;99030.72;;;8.27;100.00
8318;BME280;4196;48.926;8.964;2023-05-29T02:53:56;99061.78;;;8.41;100.00
8318;BME280;4196;48.926;8.964;2023-05-29T02:56:42;98999.59;;;7.99;100.00
8318;BME280;4196;48.926;8.964;2023-05-29T02:59:29;99034.13;;;8.21;100.00
8318;BME280;4196;48.926;8.964;2023-05-29T03:02:18;99041.88;;;8.21;100.00
8318;BME280;4196;48.926;8.964;2023-05-29T03:05:05;99040.09;;;8.16;100.00
8318;BME280;4196;48.926;8.964;2023-05-29T03:07:51;99032.38;;;8.14;100.00
8318;BME280;4196;48.926;8.964;2023-05-29T03:10:38;99040.09;;;8.16;100.00
8318;BME280;4196;48.926;8.964;2023-05-29T03:13:24;99079.66;;;8.21;100.00
8318;BME280;4196;48.926;8.964;2023-05-29T03:16:19;99030.53;;;8.03;100.00
8318;BME280;4196;48.926;8.964;2023-05-29T03:19:06;99036.63;;;8.08;100.00
8318;BME280;4196;48.926;8.964;2023-05-29T03:21:54;99059.88;;;8.15;100.00
8318;BME280;4196;48.926;8.964;2023-05-29T03:24:40;99015.78;;;7.82;100.00
8318;BME280;4196;48.926;8.964;2023-05-29T03:27:27;99041.69;;;7.98;100.00
8318;BME280;4196;48.926;8.964;2023-05-29T03:30:23;99039.97;;;7.97;100.00
8318;BME280;4196;48.926;8.964;2023-05-29T03:33:12;99024.50;;;7.96;100.00
8318;BME280;4196;48.926;8.964;2023-05-29T03:36:19;99046.91;;;8.05;100.00
8318;BME280;4196;48.926;8.964;2023-05-29T03:39:06;99033.91;;;7.91;100.00
8318;BME280;4196;48.926;8.964;2023-05-29T03:41:53;99045.06;;;7.90;100.00
8318;BME280;4196;48.926;8.964;2023-05-29T03:44:39;99033.00;;;7.84;100.00
8318;BME280;4196;48.926;8.964;2023-05-29T03:47:28;99039.91;;;7.88;100.00
8318;BME280;4196;48.926;8.964;2023-05-29T03:50:14;99061.56;;;8.12;100.00
8318;BME280;4196;48.926;8.964;2023-05-29T03:53:03;99054.69;;;8.11;100.00
8318;BME280;4196;48.926;8.964;2023-05-29T03:55:50;99055.66;;;8.28;100.00
8318;BME280;4196;48.926;8.964;2023-05-29T03:58:37;99070.44;;;8.48;100.00
8318;BME280;4196;48.926;8.964;2023-05-29T04:01:24;99078.16;;;8.44;100.00
8318;BME280;4196;48.926;8.964;2023-05-29T04:04:13;99073.88;;;8.48;100.00
8318;BME280;4196;48.926;8.964;2023-05-29T04:06:59;99072.16;;;8.50;100.00
8318;BME280;4196;48.926;8.964;2023-05-29T04:09:46;99067.91;;;8.57;100.00
8318;BME280;4196;48.926;8.964;2023-05-29T04:12:33;99086.13;;;8.84;100.00
8318;BME280;4196;48.926;8.964;2023-05-29T04:15:19;99084.38;;;8.79;100.00
8318;BME280;4196;48.926;8.964;2023-05-29T04:18:06;99086.97;;;8.80;100.00
8318;BME280;4196;48.926;8.964;2023-05-29T04:20:52;99074.94;;;8.85;100.00
8318;BME280;4196;48.926;8.964;2023-05-29T04:23:40;99069.81;;;8.98;100.00
8318;BME280;4196;48.926;8.964;2023-05-29T04:26:26;99081.91;;;9.11;100.00
8318;BME280;4196;48.926;8.964;2023-05-29T04:29:13;99082.78;;;9.14;100.00
8318;BME280;4196;48.926;8.964;2023-05-29T04:32:01;99116.47;;;9.48;100.00
8318;BME280;4196;48.926;8.964;2023-05-29T04:34:50;99090.66;;;9.47;100.00
8318;BME280;4196;48.926;8.964;2023-05-29T04:37:37;99099.31;;;9.82;100.00
8318;BME280;4196;48.926;8.964;2023-05-29T04:40:26;99128.69;;;10.32;100.00
8318;BME280;4196;48.926;8.964;2023-05-29T04:43:13;99126.06;;;10.52;100.00
8318;BME280;4196;48.926;8.964;2023-05-29T04:46:14;99090.72;;;10.38;100.00
8318;BME280;4196;48.926;8.964;2023-05-29T04:49:02;99122.59;;;10.53;100.00
8318;BME280;4196;48.926;8.964;2023-05-29T04:51:49;99119.16;;;10.52;100.00
8318;BME280;4196;48.926;8.964;2023-05-29T04:54:38;99116.56;;;10.66;100.00
8318;BME280;4196;48.926;8.964;2023-05-29T04:57:25;99143.97;;;11.31;100.00
8318;BME280;4196;48.926;8.964;2023-05-29T05:00:13;99140.19;;;11.97;100.00
8318;BME280;4196;48.926;8.964;2023-05-29T05:03:02;99110.75;;;12.93;100.00
8318;BME280;4196;48.926;8.964;2023-05-29T05:05:49;99116.63;;;14.33;92.14
8318;BME280;4196;48.926;8.964;2023-05-29T05:08:36;99139.56;;;15.52;82.04
8318;BME280;4196;48.926;8.964;2023-05-29T05:11:23;99136.47;;;16.13;78.36
8318;BME280;4196;48.926;8.964;2023-05-29T05:14:10;99113.13;;;16.76;74.30
8318;BME280;4196;48.926;8.964;2023-05-29T05:16:57;99142.56;;;17.76;69.07
8318;BME280;4196;48.926;8.964;2023-05-29T05:19:44;99140.25;;;17.95;66.34
8318;BME280;4196;48.926;8.964;2023-05-29T05:22:31;99120.38;;;18.67;62.70
8318;BME280;4196;48.926;8.964;2023-05-29T05:25:17;99113.00;;;19.50;58.32
8318;BME280;4196;48.926;8.964;2023-05-29T05:28:05;99149.63;;;20.00;52.84
8318;BME280;4196;48.926;8.964;2023-05-29T05:30:53;99113.78;;;19.76;53.08
8318;BME280;4196;48.926;8.964;2023-05-29T05:33:40;99135.00;;;19.93;53.00
8318;BME280;4196;48.926;8.964;2023-05-29T05:36:26;99116.25;;;19.57;54.50
8318;BME280;4196;48.926;8.964;2023-05-29T05:39:21;99119.75;;;20.03;52.56
8318;BME280;4196;48.926;8.964;2023-05-29T05:42:08;99141.34;;;20.10;52.27
8318;BME280;4196;48.926;8.964;2023-05-29T05:45:09;99144.97;;;19.85;52.73
8318;BME280;4196;48.926;8.964;2023-05-29T05:47:56;99138.81;;;19.86;52.71
8318;BME280;4196;48.926;8.964;2023-05-29T05:50:43;99110.72;;;19.41;54.50
8318;BME280;4196;48.926;8.964;2023-05-29T05:53:30;99141.44;;;19.39;55.81
8318;BME280;4196;48.926;8.964;2023-05-29T05:56:16;99160.94;;;18.83;57.90
8318;BME280;4196;48.926;8.964;2023-05-29T05:59:03;99169.34;;;18.40;58.35
8318;BME280;4196;48.926;8.964;2023-05-29T06:01:50;99173.84;;;17.80;63.57
8318;BME280;4196;48.926;8.964;2023-05-29T06:04:36;99167.19;;;17.39;68.26
8318;BME280;4196;48.926;8.964;2023-05-29T06:07:22;99169.84;;;17.06;71.94
8318;BME280;4196;48.926;8.964;2023-05-29T06:10:10;99164.31;;;16.84;71.68
8318;BME280;4196;48.926;8.964;2023-05-29T06:12:56;99186.19;;;16.82;69.60
8318;BME280;4196;48.926;8.964;2023-05-29T06:15:49;99172.03;;;16.55;70.65
8318;BME280;4196;48.926;8.964;2023-05-29T06:18:35;99161.78;;;16.47;69.51
8318;BME280;4196;48.926;8.964;2023-05-29T06:21:22;99171.66;;;16.34;69.09
8318;BME280;4196;48.926;8.964;2023-05-29T06:24:14;99190.38;;;16.53;72.35
8318;BME280;4196;48.926;8.964;2023-05-29T06:27:01;99180.06;;;16.47;66.84
8318;BME280;4196;48.926;8.964;2023-05-29T06:29:48;99201.63;;;16.55;68.48
8318;BME280;4196;48.926;8.964;2023-05-29T06:32:34;99199.03;;;16.55;68.25
8318;BME280;4196;48.926;8.964;2023-05-29T06:35:20;99172.28;;;16.44;70.48
8318;BME280;4196;48.926;8.964;2023-05-29T06:38:07;99175.56;;;16.54;70.96
8318;BME280;4196;48.926;8.964;2023-05-29T06:40:53;99183.97;;;16.65;69.61
8318;BME280;4196;48.926;8.964;2023-05-29T06:43:40;99210.28;;;16.93;70.43
8318;BME280;4196;48.926;8.964;2023-05-29T06:46:29;99211.56;;;17.12;68.07
8318;BME280;4196;48.926;8.964;2023-05-29T06:52:05;99214.03;;;17.48;63.78
8318;BME280;4196;48.926;8.964;2023-05-29T06:55:18;99194.91;;;17.46;62.26
8318;BME280;4196;48.926;8.964;2023-05-29T06:58:05;99216.03;;;17.70;65.03
8318;BME280;4196;48.926;8.964;2023-05-29T07:07:03;99200.72;;;17.87;59.53
8318;BME280;4196;48.926;8.964;2023-05-29T07:09:50;99175.91;;;17.69;63.48
8318;BME280;4196;48.926;8.964;2023-05-29T07:12:41;99224.28;;;18.17;62.77
8318;BME280;4196;48.926;8.964;2023-05-29T07:15:28;99216.63;;;18.37;63.12
8318;BME280;4196;48.926;8.964;2023-05-29T07:18:15;99181.66;;;18.38;60.15
8318;BME280;4196;48.926;8.964;2023-05-29T07:21:02;99214.81;;;18.67;56.34
8318;BME280;4196;48.926;8.964;2023-05-29T07:23:50;99224.25;;;18.73;54.97
8318;BME280;4196;48.926;8.964;2023-05-29T07:26:37;99195.06;;;18.55;54.72
8318;BME280;4196;48.926;8.964;2023-05-29T07:29:24;99201.63;;;18.42;54.86
8318;BME280;4196;48.926;8.964;2023-05-29T07:32:11;99222.63;;;18.69;55.20
8318;BME280;4196;48.926;8.964;2023-05-29T07:34:58;99220.91;;;18.68;55.53
8318;BME280;4196;48.926;8.964;2023-05-29T07:37:45;99178.53;;;18.53;56.73
8318;BME280;4196;48.926;8.964;2023-05-29T07:40:34;99223.09;;;19.06;55.45
8318;BME280;4196;48.926;8.964;2023-05-29T07:43:30;99226.97;;;18.96;56.54
8318;BME280;4196;48.926;8.964;2023-05-29T07:46:20;99219.81;;;19.01;56.45
8318;BME280;4196;48.926;8.964;2023-05-29T07:49:10;99187.09;;;18.85;56.22
8318;BME280;4196;48.926;8.964;2023-05-29T07:51:57;99225.91;;;19.27;53.75
8318;BME280;4196;48.926;8.964;2023-05-29T07:54:45;99206.72;;;19.25;54.24
8318;BME280;4196;48.926;8.964;2023-05-29T07:57:33;99217.84;;;19.57;54.37
8318;BME280;4196;48.926;8.964;2023-05-29T08:00:20;99215.03;;;19.61;55.61
8318;BME280;4196;48.926;8.964;2023-05-29T08:03:06;99210.88;;;19.55;52.84
8318;BME280;4196;48.926;8.964;2023-05-29T08:06:16;99215.13;;;19.58;51.47
8318;BME280;4196;48.926;8.964;2023-05-29T08:09:04;99211.09;;;19.49;51.36
8318;BME280;4196;48.926;8.964;2023-05-29T08:11:51;99225.81;;;19.53;50.73
8318;BME280;4196;48.926;8.964;2023-05-29T08:14:38;99194.81;;;19.40;51.01
8318;BME280;4196;48.926;8.964;2023-05-29T08:17:24;99204.81;;;19.53;51.21
8318;BME280;4196;48.926;8.964;2023-05-29T08:20:12;99182.97;;;19.28;50.70
8318;BME280;4196;48.926;8.964;2023-05-29T08:22:58;99214.75;;;19.45;51.19
8318;BME280;4196;48.926;8.964;2023-05-29T08:25:44;99221.91;;;19.65;52.30
8318;BME280;4196;48.926;8.964;2023-05-29T08:28:31;99202.41;;;19.47;51.69
8318;BME280;4196;48.926;8.964;2023-05-29T08:31:17;99192.25;;;19.62;50.99
8318;BME280;4196;48.926;8.964;2023-05-29T08:34:04;99215.69;;;19.68;50.57
8318;BME280;4196;48.926;8.964;2023-05-29T08:36:53;99199.94;;;19.68;50.17
8318;BME280;4196;48.926;8.964;2023-05-29T08:39:41;99206.31;;;19.84;51.02
8318;BME280;4196;48.926;8.964;2023-05-29T08:42:32;99209.03;;;20.05;51.73
8318;BME280;4196;48.926;8.964;2023-05-29T08:45:21;99201.09;;;20.28;51.10
8318;BME280;4196;48.926;8.964;2023-05-29T08:48:09;99215.69;;;20.59;50.92
8318;BME280;4196;48.926;8.964;2023-05-29T08:50:58;99171.28;;;20.29;47.71
8318;BME280;4196;48.926;8.964;2023-05-29T08:53:46;99184.53;;;20.26;48.00
8318;BME280;4196;48.926;8.964;2023-05-29T08:56:32;99216.25;;;20.43;49.24
8318;BME280;4196;48.926;8.964;2023-05-29T08:59:21;99184.13;;;20.59;49.19
8318;BME280;4196;48.926;8.964;2023-05-29T09:02:10;99195.94;;;20.69;47.33
8318;BME280;4196;48.926;8.964;2023-05-29T09:04:57;99186.91;;;20.54;48.73
8318;BME280;4196;48.926;8.964;2023-05-29T09:07:44;99205.19;;;20.79;47.45
8318;BME280;4196;48.926;8.964;2023-05-29T09:10:30;99216.72;;;20.97;48.60
8318;BME280;4196;48.926;8.964;2023-05-29T09:13:18;99179.91;;;20.55;48.28
8318;BME280;4196;48.926;8.964;2023-05-29T09:16:05;99227.03;;;20.81;49.54
8318;BME280;4196;48.926;8.964;2023-05-29T09:18:52;99221.91;;;20.98;49.12
8318;BME280;4196;48.926;8.964;2023-05-29T09:21:39;99214.53;;;20.86;48.91
8318;BME280;4196;48.926;8.964;2023-05-29T09:24:27;99214.53;;;20.86;49.61
8318;BME280;4196;48.926;8.964;2023-05-29T09:27:14;99203.63;;;20.95;48.75
8318;BME280;4196;48.926;8.964;2023-05-29T09:30:01;99207.63;;;21.04;48.34
8318;BME280;4196;48.926;8.964;2023-05-29T09:32:53;99228.75;;;21.23;48.13
8318;BME280;4196;48.926;8.964;2023-05-29T09:35:44;99182.16;;;21.05;49.06
8318;BME280;4196;48.926;8.964;2023-05-29T09:38:31;99165.19;;;20.91;47.67
8318;BME280;4196;48.926;8.964;2023-05-29T09:41:43;99195.31;;;21.25;48.23
8318;BME280;4196;48.926;8.964;2023-05-29T09:44:30;99233.75;;;21.50;48.72
8318;BME280;4196;48.926;8.964;2023-05-29T09:47:18;99236.00;;;21.59;47.90
8318;BME280;4196;48.926;8.964;2023-05-29T09:50:04;99212.75;;;21.48;48.30
8318;BME280;4196;48.926;8.964;2023-05-29T09:52:52;99199.63;;;21.46;47.77
8318;BME280;4196;48.926;8.964;2023-05-29T09:55:40;99220.78;;;21.65;48.40
8318;BME280;4196;48.926;8.964;2023-05-29T09:58:26;99212.06;;;21.82;47.49
8318;BME280;4196;48.926;8.964;2023-05-29T10:01:13;99223.78;;;21.95;47.08
8318;BME280;4196;48.926;8.964;2023-05-29T10:04:02;99218.72;;;22.10;46.84
8318;BME280;4196;48.926;8.964;2023-05-29T10:06:49;99191.63;;;22.06;45.98
8318;BME280;4196;48.926;8.964;2023-05-29T10:09:42;99192.53;;;22.05;46.13
8318;BME280;4196;48.926;8.964;2023-05-29T10:12:32;99200.13;;;22.32;47.14
8318;BME280;4196;48.926;8.964;2023-05-29T10:15:23;99152.97;;;22.05;45.18
8318;BME280;4196;48.926;8.964;2023-05-29T10:18:21;99191.78;;;22.22;45.41
8318;BME280;4196;48.926;8.964;2023-05-29T10:21:11;99200.34;;;22.45;45.29
8318;BME280;4196;48.926;8.964;2023-05-29T10:23:58;99170.38;;;22.28;45.46
8318;BME280;4196;48.926;8.964;2023-05-29T10:26:48;99193.88;;;22.69;45.30
8318;BME280;4196;48.926;8.964;2023-05-29T10:29:39;99151.63;;;22.52;43.63
8318;BME280;4196;48.926;8.964;2023-05-29T10:35:47;99160.31;;;22.71;43.15
8318;BME280;4196;48.926;8.964;2023-05-29T10:38:35;99194.59;;;23.07;42.90
8318;BME280;4196;48.926;8.964;2023-05-29T10:47:25;99174.72;;;23.33;40.13
8318;BME280;4196;48.926;8.964;2023-05-29T10:50:12;99147.00;;;23.25;39.45
8318;BME280;4196;48.926;8.964;2023-05-29T10:52:58;99141.44;;;23.13;39.73
8318;BME280;4196;48.926;8.964;2023-05-29T10:55:45;99184.97;;;23.39;39.80
8318;BME280;4196;48.926;8.964;2023-05-29T10:58:32;99127.78;;;23.05;40.34
8318;BME280;4196;48.926;8.964;2023-05-29T11:01:21;99133.44;;;23.15;40.31
8318;BME280;4196;48.926;8.964;2023-05-29T11:07:06;99131.72;;;23.14;39.53
8318;BME280;4196;48.926;8.964;2023-05-29T11:09:54;99144.06;;;23.47;38.92
8318;BME280;4196;48.926;8.964;2023-05-29T11:12:57;99143.38;;;23.43;39.48
8318;BME280;4196;48.926;8.964;2023-05-29T11:15:44;99132.56;;;23.48;39.75
8318;BME280;4196;48.926;8.964;2023-05-29T11:18:31;99134.34;;;23.47;38.51
8318;BME280;4196;48.926;8.964;2023-05-29T11:24:26;99182.19;;;23.76;37.52
8318;BME280;4196;48.926;8.964;2023-05-29T11:27:13;99148.84;;;23.56;38.65
8318;BME280;4196;48.926;8.964;2023-05-29T11:29:59;99160.41;;;23.71;38.33
8318;BME280;4196;48.926;8.964;2023-05-29T11:32:46;99180.88;;;23.67;36.21
8318;BME280;4196;48.926;8.964;2023-05-29T11:35:34;99161.31;;;23.54;36.34
8318;BME280;4196;48.926;8.964;2023-05-29T11:38:21;99158.50;;;23.57;36.14
8318;BME280;4196;48.926;8.964;2023-05-29T11:41:09;99184.22;;;23.86;36.94
8318;BME280;4196;48.926;8.964;2023-05-29T11:44:00;99135.19;;;23.63;36.04
8318;BME280;4196;48.926;8.964;2023-05-29T11:47:02;99168.44;;;23.85;35.41
8318;BME280;4196;48.926;8.964;2023-05-29T11:49:49;99173.81;;;23.83;35.36
8318;BME280;4196;48.926;8.964;2023-05-29T11:52:45;99166.16;;;23.95;35.43
8318;BME280;4196;48.926;8.964;2023-05-29T11:55:31;99137.81;;;23.81;34.65
8318;BME280;4196;48.926;8.964;2023-05-29T11:58:20;99136.09;;;23.96;34.42
8318;BME280;4196;48.926;8.964;2023-05-29T12:01:07;99161.94;;;24.22;33.80
8318;BME280;4196;48.926;8.964;2023-05-29T12:03:54;99133.69;;;24.07;34.34
8318;BME280;4196;48.926;8.964;2023-05-29T12:06:40;99137.28;;;24.06;33.83
8318;BME280;4196;48.926;8.964;2023-05-29T12:09:29;99158.44;;;24.22;33.75
8318;BME280;4196;48.926;8.964;2023-05-29T12:12:16;99133.88;;;24.20;32.91
8318;BME280;4196;48.926;8.964;2023-05-29T12:15:04;99155.94;;;24.50;32.67
8318;BME280;4196;48.926;8.964;2023-05-29T12:17:53;99167.44;;;24.65;33.06
8318;BME280;4196;48.926;8.964;2023-05-29T12:20:39;99155.78;;;24.53;32.08
8318;BME280;4196;48.926;8.964;2023-05-29T12:23:30;99169.47;;;24.90;32.07
8318;BME280;4196;48.926;8.964;2023-05-29T12:26:17;99146.25;;;24.65;32.51
8318;BME280;4196;48.926;8.964;2023-05-29T12:29:03;99163.97;;;24.79;32.11
8318;BME280;4196;48.926;8.964;2023-05-29T12:31:57;99144.78;;;24.90;31.54
8318;BME280;4196;48.926;8.964;2023-05-29T12:34:49;99165.25;;;25.02;31.67
8318;BME280;4196;48.926;8.964;2023-05-29T12:37:35;99146.91;;;24.69;31.72
8318;BME280;4196;48.926;8.964;2023-05-29T12:43:13;99152.31;;;24.67;32.06
8318;BME280;4196;48.926;8.964;2023-05-29T12:46:00;99141.97;;;24.63;32.19
8318;BME280;4196;48.926;8.964;2023-05-29T12:48:46;99179.88;;;24.79;31.87
8318;BME280;4196;48.926;8.964;2023-05-29T12:51:33;99164.25;;;24.74;32.94
8318;BME280;4196;48.926;8.964;2023-05-29T12:54:20;99144.78;;;24.90;32.06
8318;BME280;4196;48.926;8.964;2023-05-29T12:57:07;99147.47;;;25.04;31.74
8318;BME280;4196;48.926;8.964;2023-05-29T12:59:53;99139.94;;;25.12;31.73
8318;BME280;4196;48.926;8.964;2023-05-29T13:02:40;99137.53;;;24.63;30.22
8318;BME280;4196;48.926;8.964;2023-05-29T13:05:27;99146.19;;;24.51;31.52
8318;BME280;4196;48.926;8.964;2023-05-29T13:08:14;99140.59;;;24.71;30.86
8318;BME280;4196;48.926;8.964;2023-05-29T13:11:00;99166.28;;;24.99;30.34
8318;BME280;4196;48.926;8.964;2023-05-29T13:13:47;99144.22;;;24.99;30.42
8318;BME280;4196;48.926;8.964;2023-05-29T13:16:33;99152.78;;;25.18;30.03
8318;BME280;4196;48.926;8.964;2023-05-29T13:19:21;99134.47;;;24.99;29.46
8318;BME280;4196;48.926;8.964;2023-05-29T13:22:07;99104.47;;;24.85;29.33
8318;BME280;4196;48.926;8.964;2023-05-29T13:24:54;99134.16;;;25.20;29.88
8318;BME280;4196;48.926;8.964;2023-05-29T13:27:42;99140.31;;;25.35;29.47
8318;BME280;4196;48.926;8.964;2023-05-29T13:30:30;99129.72;;;25.35;30.01
8318;BME280;4196;48.926;8.964;2023-05-29T13:33:16;99138.78;;;25.45;29.26
8318;BME280;4196;48.926;8.964;2023-05-29T13:36:02;99141.44;;;25.30;29.02
8318;BME280;4196;48.926;8.964;2023-05-29T13:38:49;99126.09;;;25.21;29.02
8318;BME280;4196;48.926;8.964;2023-05-29T13:41:36;99121.38;;;25.12;29.04
8318;BME280;4196;48.926;8.964;2023-05-29T13:44:22;99141.16;;;25.49;28.55
8318;BME280;4196;48.926;8.964;2023-05-29T13:47:09;99126.25;;;25.61;28.92
8318;BME280;4196;48.926;8.964;2023-05-29T13:49:56;99125.41;;;25.61;29.39
8318;BME280;4196;48.926;8.964;2023-05-29T13:52:42;99126.88;;;25.52;28.02
8318;BME280;4196;48.926;8.964;2023-05-29T13:55:29;99132.91;;;25.40;29.12
8318;BME280;4196;48.926;8.964;2023-05-29T13:58:16;99119.94;;;25.21;29.27
8318;BME280;4196;48.926;8.964;2023-05-29T14:01:02;99129.78;;;25.47;29.91
8318;BME280;4196;48.926;8.964;2023-05-29T14:03:49;99117.00;;;25.54;29.70
8318;BME280;4196;48.926;8.964;2023-05-29T14:06:35;99077.66;;;25.34;29.75
8318;BME280;4196;48.926;8.964;2023-05-29T14:09:22;99133.53;;;25.72;30.29
8318;BME280;4196;48.926;8.964;2023-05-29T14:12:13;99126.63;;;25.84;29.42
8318;BME280;4196;48.926;8.964;2023-05-29T14:15:00;99111.84;;;25.65;28.79
8318;BME280;4196;48.926;8.964;2023-05-29T14:17:46;99110.84;;;25.53;29.88
8318;BME280;4196;48.926;8.964;2023-05-29T14:20:33;99125.78;;;25.54;28.59
8318;BME280;4196;48.926;8.964;2023-05-29T14:23:19;99113.69;;;25.50;29.71
8318;BME280;4196;48.926;8.964;2023-05-29T14:26:06;99094.09;;;25.39;28.87
8318;BME280;4196;48.926;8.964;2023-05-29T14:28:53;99101.69;;;25.30;28.93
8318;BME280;4196;48.926;8.964;2023-05-29T14:31:50;99086.75;;;25.15;29.32
8318;BME280;4196;48.926;8.964;2023-05-29T14:34:37;99112.66;;;25.24;29.20
8318;BME280;4196;48.926;8.964;2023-05-29T14:37:24;99097.88;;;25.06;29.65
8318;BME280;4196;48.926;8.964;2023-05-29T14:40:11;99111.34;;;25.17;29.55
8318;BME280;4196;48.926;8.964;2023-05-29T14:42:57;99116.34;;;25.22;29.23
8318;BME280;4196;48.926;8.964;2023-05-29T14:45:44;99044.69;;;24.80;29.78
8318;BME280;4196;48.926;8.964;2023-05-29T14:48:30;99104.91;;;25.21;30.74
8318;BME280;4196;48.926;8.964;2023-05-29T14:51:17;99094.59;;;25.17;30.31
8318;BME280;4196;48.926;8.964;2023-05-29T14:54:05;99097.13;;;25.18;30.10
8318;BME280;4196;48.926;8.964;2023-05-29T14:56:51;99099.41;;;25.10;29.90
8318;BME280;4196;48.926;8.964;2023-05-29T14:59:38;99094.38;;;25.05;29.92
8318;BME280;4196;48.926;8.964;2023-05-29T15:02:24;99081.50;;;24.99;30.53
8318;BME280;4196;48.926;8.964;2023-05-29T15:05:10;99070.88;;;24.99;30.12
8318;BME280;4196;48.926;8.964;2023-05-29T15:07:57;99085.19;;;25.11;30.06
8318;BME280;4196;48.926;8.964;2023-05-29T15:10:43;99084.63;;;24.92;30.15
8318;BME280;4196;48.926;8.964;2023-05-29T15:13:30;99077.91;;;24.86;29.81
8318;BME280;4196;48.926;8.964;2023-05-29T15:16:16;99084.63;;;24.92;31.13
8318;BME280;4196;48.926;8.964;2023-05-29T15:19:03;99086.91;;;24.98;30.55
8318;BME280;4196;48.926;8.964;2023-05-29T15:21:50;99091.59;;;25.07;30.58
8318;BME280;4196;48.926;8.964;2023-05-29T15:24:37;99103.75;;;25.11;29.91
8318;BME280;4196;48.926;8.964;2023-05-29T15:27:23;99095.50;;;25.01;29.86
8318;BME280;4196;48.926;8.964;2023-05-29T15:30:15;99083.47;;;24.81;30.97
8318;BME280;4196;48.926;8.964;2023-05-29T15:33:01;99055.84;;;24.71;31.20
8318;BME280;4196;48.926;8.964;2023-05-29T15:35:54;99066.44;;;24.71;31.03
8318;BME280;4196;48.926;8.964;2023-05-29T15:38:41;99057.66;;;24.71;30.69
8318;BME280;4196;48.926;8.964;2023-05-29T15:41:27;99083.28;;;24.85;31.11
8318;BME280;4196;48.926;8.964;2023-05-29T15:44:15;99084.06;;;24.87;30.64
8318;BME280;4196;48.926;8.964;2023-05-29T15:47:01;99063.41;;;24.77;31.20
8318;BME280;4196;48.926;8.964;2023-05-29T15:49:49;99080.06;;;24.79;31.86